createdAt,value
2019-02-27T00:00:22.102Z,7.03
2019-02-27T00:02:50.909Z,6.97
2019-02-27T00:05:19.681Z,6.97
2019-02-27T00:07:48.536Z,8.90
2019-02-27T00:10:17.422Z,5.83
2019-02-27T00:12:46.256Z,11.87
2019-02-27T00:15:15.421Z,7.77
2019-02-27T00:17:44.328Z,8.67
2019-02-27T00:20:13.157Z,11.40
2019-02-27T00:22:42.028Z,10.90
2019-02-27T00:25:10.892Z,8.77
2019-02-27T00:27:39.759Z,6.87
2019-02-27T00:30:11.029Z,5.50
2019-02-27T00:32:39.899Z,10.33
2019-02-27T00:35:08.745Z,9.90
2019-02-27T00:37:37.606Z,10.47
2019-02-27T00:40:08.730Z,10.30
2019-02-27T00:42:37.659Z,5.83
2019-02-27T00:45:08.979Z,9.00
2019-02-27T00:47:37.850Z,7.87
2019-02-27T00:50:08.704Z,7.23
2019-02-27T00:52:37.649Z,7.37
2019-02-27T00:55:08.399Z,8.57
2019-02-27T00:57:37.277Z,7.23
2019-02-27T01:00:09.568Z,7.40
2019-02-27T01:02:38.412Z,14.17
2019-02-27T01:05:09.144Z,9.03
2019-02-27T01:07:38.207Z,8.10
2019-02-27T01:10:11.947Z,6.97
2019-02-27T01:12:40.362Z,8.03
2019-02-27T01:15:11.296Z,6.90
2019-02-27T01:17:40.132Z,10.50
2019-02-27T01:20:14.865Z,12.17
2019-02-27T01:22:44.387Z,10.33
2019-02-27T01:25:13.246Z,13.93
2019-02-27T01:27:42.111Z,9.87
2019-02-27T01:30:14.136Z,10.23
2019-02-27T01:32:43.274Z,7.40
2019-02-27T01:35:17.461Z,9.67
2019-02-27T01:37:43.889Z,13.20
2019-02-27T01:40:17.533Z,10.13
2019-02-27T01:42:45.055Z,8.83
2019-02-27T01:45:20.560Z,12.27
2019-02-27T01:47:47.040Z,9.67
2019-02-27T01:50:30.407Z,12.13
2019-02-27T01:52:59.245Z,12.63
2019-02-27T01:55:28.115Z,10.73
2019-02-27T01:57:57.012Z,9.17
2019-02-27T02:00:25.870Z,8.70
2019-02-27T02:02:54.739Z,10.87
2019-02-27T02:05:26.353Z,8.07
2019-02-27T02:07:54.212Z,18.30
2019-02-27T02:10:23.051Z,8.07
2019-02-27T02:13:01.683Z,9.73
2019-02-27T02:15:42.033Z,10.27
2019-02-27T02:18:36.060Z,9.23
2019-02-27T02:21:22.183Z,10.83
2019-02-27T02:23:59.742Z,12.33
2019-02-27T02:26:32.126Z,11.30
2019-02-27T02:29:39.977Z,8.70
2019-02-27T02:32:35.775Z,10.87
2019-02-27T02:35:26.989Z,10.00
2019-02-27T02:38:12.427Z,11.60
2019-02-27T02:40:56.466Z,11.13
2019-02-27T02:43:31.173Z,11.40
2019-02-27T02:46:14.928Z,12.33
2019-02-27T02:49:12.457Z,9.93
2019-02-27T02:51:50.241Z,11.03
2019-02-27T02:54:55.492Z,14.00
2019-02-27T02:57:36.195Z,11.90
2019-02-27T03:00:18.485Z,11.77
2019-02-27T03:02:57.518Z,16.13
2019-02-27T03:05:59.701Z,8.60
2019-02-27T03:08:47.040Z,11.60
2019-02-27T03:11:42.928Z,11.20
2019-02-27T03:14:31.362Z,14.67
2019-02-27T03:17:27.200Z,12.30
2019-02-27T03:20:17.705Z,12.17
2019-02-27T03:22:54.578Z,15.20
2019-02-27T03:25:40.138Z,13.60
2019-02-27T03:28:23.616Z,11.33
2019-02-27T03:31:04.438Z,13.73
2019-02-27T03:34:05.898Z,13.83
2019-02-27T03:36:56.256Z,18.23
2019-02-27T03:39:42.967Z,11.87
2019-02-27T03:42:14.725Z,13.30
2019-02-27T03:45:04.631Z,18.77
2019-02-27T03:48:06.629Z,18.97
2019-02-27T03:50:38.408Z,16.13
2019-02-27T03:53:18.770Z,13.03
2019-02-27T03:56:13.207Z,16.77
2019-02-27T03:58:44.946Z,15.33
2019-02-27T04:01:37.904Z,16.03
2019-02-27T04:04:34.625Z,18.70
2019-02-27T04:07:15.196Z,15.27
2019-02-27T04:09:44.004Z,14.33
2019-02-27T04:12:16.108Z,16.77
2019-02-27T04:14:43.485Z,11.90
2019-02-27T04:17:12.406Z,12.70
2019-02-27T04:19:41.446Z,13.10
2019-02-27T04:22:10.394Z,14.37
2019-02-27T04:24:39.316Z,13.37
2019-02-27T04:27:08.190Z,15.43
2019-02-27T04:29:40.806Z,16.20
2019-02-27T04:32:09.661Z,16.13
2019-02-27T04:34:38.084Z,16.93
2019-02-27T04:37:06.944Z,16.37
2019-02-27T04:39:38.210Z,16.53
2019-02-27T04:42:06.312Z,15.30
2019-02-27T04:44:35.942Z,15.13
2019-02-27T04:47:05.771Z,16.80
2019-02-27T04:49:34.827Z,13.80
2019-02-27T04:52:05.135Z,14.73
2019-02-27T04:54:35.090Z,14.40
2019-02-27T04:57:04.093Z,18.73
2019-02-27T04:59:32.929Z,19.37
2019-02-27T05:02:01.818Z,21.60
2019-02-27T05:04:34.890Z,19.43
2019-02-27T05:07:01.218Z,19.37
2019-02-27T05:09:33.549Z,18.73
2019-02-27T05:12:00.544Z,19.17
2019-02-27T05:14:29.361Z,16.93
2019-02-27T05:16:59.624Z,18.43
2019-02-27T05:19:28.668Z,19.83
2019-02-27T05:21:57.543Z,16.00
2019-02-27T05:24:26.347Z,18.70
2019-02-27T05:26:55.265Z,21.50
2019-02-27T05:29:24.148Z,17.87
2019-02-27T05:31:53.916Z,16.87
2019-02-27T05:34:22.899Z,18.73
2019-02-27T05:36:51.710Z,16.63
2019-02-27T05:39:20.553Z,15.53
2019-02-27T05:41:49.404Z,20.63
2019-02-27T05:44:21.456Z,20.03
2019-02-27T05:46:48.808Z,21.03
2019-02-27T05:49:17.707Z,16.50
2019-02-27T05:51:46.536Z,18.23
2019-02-27T05:54:15.497Z,21.70
2019-02-27T05:56:44.384Z,15.83
2019-02-27T05:59:13.216Z,19.40
2019-02-27T06:01:42.035Z,19.67
2019-02-27T06:04:13.919Z,18.47
2019-02-27T06:06:44.982Z,21.37
2019-02-27T06:09:13.201Z,23.97
2019-02-27T06:11:42.110Z,18.83
2019-02-27T06:14:10.964Z,19.67
2019-02-27T06:16:40.829Z,22.50
2019-02-27T06:19:09.842Z,22.70
2019-02-27T06:21:38.898Z,21.13
2019-02-27T06:24:11.614Z,20.97
2019-02-27T06:26:38.281Z,19.97
2019-02-27T06:29:07.116Z,18.20
2019-02-27T06:31:38.840Z,18.47
2019-02-27T06:34:06.552Z,20.93
2019-02-27T06:36:35.414Z,19.80
2019-02-27T06:39:05.794Z,16.50
2019-02-27T06:41:34.644Z,20.57
2019-02-27T06:44:03.518Z,22.37
2019-02-27T06:46:32.573Z,22.47
2019-02-27T06:49:01.381Z,22.13
2019-02-27T06:51:30.266Z,21.83
2019-02-27T06:53:59.196Z,19.27
2019-02-27T06:56:28.037Z,25.60
2019-02-27T06:58:56.826Z,23.37
2019-02-27T07:01:25.764Z,21.27
2019-02-27T07:03:54.561Z,22.37
2019-02-27T07:06:23.431Z,21.67
2019-02-27T07:08:52.252Z,21.37
2019-02-27T07:11:21.173Z,21.27
2019-02-27T07:13:49.990Z,27.17
2019-02-27T07:16:20.567Z,23.43
2019-02-27T07:18:49.379Z,22.23
2019-02-27T07:21:18.264Z,21.37
2019-02-27T07:23:47.144Z,22.27
2019-02-27T07:26:16.569Z,23.63
2019-02-27T07:28:45.695Z,27.47
2019-02-27T07:31:17.344Z,20.63
2019-02-27T07:33:45.188Z,24.00
2019-02-27T07:36:13.979Z,22.70
2019-02-27T07:38:42.876Z,25.27
2019-02-27T07:41:11.744Z,23.93
2019-02-27T07:43:40.584Z,21.03
2019-02-27T07:46:09.392Z,24.57
2019-02-27T07:48:39.284Z,26.67
2019-02-27T07:51:08.164Z,19.77
2019-02-27T07:53:36.974Z,20.17
2019-02-27T07:56:05.861Z,25.53
2019-02-27T07:58:34.677Z,21.27
2019-02-27T08:01:04.686Z,19.40
2019-02-27T08:03:33.696Z,21.07
2019-02-27T08:06:03.080Z,21.00
2019-02-27T08:08:32.011Z,19.67
2019-02-27T08:11:00.926Z,21.57
2019-02-27T08:13:30.310Z,18.37
2019-02-27T08:15:59.336Z,18.83
2019-02-27T08:18:30.516Z,19.63
2019-02-27T08:20:58.693Z,18.10
2019-02-27T08:23:27.534Z,20.10
2019-02-27T08:25:56.375Z,21.40
2019-02-27T08:28:25.235Z,22.97
2019-02-27T08:30:54.040Z,23.07
2019-02-27T08:33:22.885Z,23.53
2019-02-27T08:35:51.784Z,21.13
2019-02-27T08:38:20.631Z,18.63
2019-02-27T08:40:49.515Z,23.33
2019-02-27T08:43:18.452Z,21.20
2019-02-27T08:45:47.188Z,22.47
2019-02-27T08:48:17.522Z,19.53
2019-02-27T08:50:46.537Z,22.17
2019-02-27T08:53:15.383Z,21.50
2019-02-27T08:55:44.308Z,21.97
2019-02-27T08:58:13.177Z,19.57
2019-02-27T09:00:42.061Z,20.23
2019-02-27T09:03:20.017Z,22.40
2019-02-27T09:05:41.775Z,21.83
2019-02-27T09:08:10.809Z,19.73
2019-02-27T09:10:39.636Z,22.07
2019-02-27T09:13:08.507Z,21.37
2019-02-27T09:15:37.404Z,19.17
2019-02-27T09:18:06.304Z,17.67
2019-02-27T09:20:35.128Z,18.73
2019-02-27T09:23:04.037Z,18.77
2019-02-27T09:25:32.874Z,18.80
2019-02-27T09:28:03.473Z,20.30
2019-02-27T09:30:32.236Z,17.73
2019-02-27T09:33:01.117Z,15.97
2019-02-27T09:35:34.592Z,14.93
2019-02-27T09:38:00.581Z,16.57
2019-02-27T09:40:30.025Z,15.83
2019-02-27T09:42:58.949Z,16.17
2019-02-27T09:45:29.240Z,15.53
2019-02-27T09:47:59.895Z,15.43
2019-02-27T09:50:36.080Z,14.23
2019-02-27T09:53:05.387Z,15.63
2019-02-27T09:55:34.187Z,11.33
2019-02-27T09:58:03.184Z,12.67
2019-02-27T10:00:43.498Z,12.80
2019-02-27T10:03:12.447Z,12.43
2019-02-27T10:05:41.308Z,9.50
2019-02-27T10:08:11.283Z,11.03
2019-02-27T10:10:44.902Z,10.03
2019-02-27T10:13:10.829Z,14.50
2019-02-27T10:15:39.709Z,10.90
2019-02-27T10:18:08.568Z,10.93
2019-02-27T10:20:38.046Z,10.77
2019-02-27T10:23:07.203Z,9.87
2019-02-27T10:25:36.064Z,11.03
2019-02-27T10:28:05.043Z,8.97
2019-02-27T10:30:34.105Z,13.10
2019-02-27T10:33:03.470Z,13.07
2019-02-27T10:35:34.551Z,10.07
2019-02-27T10:38:03.126Z,7.87
2019-02-27T10:40:31.984Z,8.47
2019-02-27T10:43:00.786Z,9.23
2019-02-27T10:45:29.748Z,10.70
2019-02-27T10:47:58.611Z,10.70
2019-02-27T10:50:27.512Z,9.13
2019-02-27T10:52:56.409Z,10.03
2019-02-27T10:55:26.797Z,14.13
2019-02-27T10:57:55.937Z,8.83
2019-02-27T11:00:28.844Z,8.57
2019-02-27T11:02:58.029Z,8.83
2019-02-27T11:05:28.861Z,12.83
2019-02-27T11:07:57.731Z,8.30
2019-02-27T11:10:26.615Z,11.60
2019-02-27T11:12:55.521Z,9.07
2019-02-27T11:15:24.528Z,9.80
2019-02-27T11:17:53.503Z,8.57
2019-02-27T11:20:24.515Z,10.17
2019-02-27T11:22:52.977Z,8.57
2019-02-27T11:25:29.465Z,7.83
2019-02-27T11:27:58.288Z,9.57
2019-02-27T11:30:36.885Z,8.53
2019-02-27T11:33:05.913Z,10.33
2019-02-27T11:35:34.751Z,10.07
2019-02-27T11:38:03.631Z,9.20
2019-02-27T11:40:32.477Z,9.27
2019-02-27T11:43:01.306Z,11.17
2019-02-27T11:45:31.798Z,9.53
2019-02-27T11:48:00.677Z,8.83
2019-02-27T11:50:29.557Z,10.10
2019-02-27T11:53:01.531Z,9.57
2019-02-27T11:55:28.936Z,11.47
2019-02-27T11:57:57.797Z,6.93
2019-02-27T12:00:31.597Z,10.17
2019-02-27T12:03:00.484Z,12.17
2019-02-27T12:05:33.695Z,7.07
2019-02-27T12:07:59.804Z,11.00
2019-02-27T12:10:31.270Z,11.07
2019-02-27T12:13:01.328Z,9.17
2019-02-27T12:15:30.741Z,8.10
2019-02-27T12:18:01.834Z,7.23
2019-02-27T12:20:30.118Z,7.93
2019-02-27T12:22:59.094Z,7.83
2019-02-27T12:25:29.953Z,9.03
2019-02-27T12:27:58.442Z,8.40
2019-02-27T12:30:31.473Z,10.87
2019-02-27T12:33:00.324Z,14.43
2019-02-27T12:35:31.439Z,7.43
2019-02-27T12:38:00.294Z,7.90
2019-02-27T12:40:29.164Z,7.07
2019-02-27T12:42:57.988Z,8.43
2019-02-27T12:45:29.787Z,8.70
2019-02-27T12:47:58.988Z,9.90
2019-02-27T12:50:31.449Z,9.17
2019-02-27T12:53:00.555Z,7.97
2019-02-27T12:55:29.404Z,7.13
2019-02-27T12:57:58.196Z,10.67
2019-02-27T13:00:30.529Z,8.23
2019-02-27T13:02:59.534Z,10.30
2019-02-27T13:05:29.061Z,8.83
2019-02-27T13:07:58.235Z,10.90
2019-02-27T13:10:33.119Z,7.10
2019-02-27T13:12:58.397Z,8.80
2019-02-27T13:15:30.792Z,10.67
2019-02-27T13:17:59.638Z,7.70
2019-02-27T13:20:29.619Z,8.07
2019-02-27T13:23:01.410Z,8.20
2019-02-27T13:25:30.320Z,11.00
2019-02-27T13:27:59.477Z,8.63
2019-02-27T13:30:28.913Z,10.60
2019-02-27T13:33:00.778Z,8.63
2019-02-27T13:35:29.095Z,7.37
2019-02-27T13:37:58.336Z,9.10
2019-02-27T13:40:28.493Z,6.93
2019-02-27T13:42:57.466Z,7.53
2019-02-27T13:45:27.434Z,7.87
2019-02-27T13:47:56.308Z,9.17
2019-02-27T13:50:26.822Z,7.60
2019-02-27T13:52:56.058Z,7.73
2019-02-27T13:55:25.024Z,7.53
2019-02-27T13:57:58.778Z,6.73
2019-02-27T14:00:30.034Z,7.60
2019-02-27T14:02:58.870Z,9.10
2019-02-27T14:05:29.383Z,10.27
2019-02-27T14:07:58.777Z,7.73
2019-02-27T14:10:32.392Z,8.33
2019-02-27T14:13:01.240Z,6.27
2019-02-27T14:15:31.648Z,6.77
2019-02-27T14:18:01.160Z,7.73
2019-02-27T14:20:30.227Z,9.83
2019-02-27T14:22:59.184Z,8.00
2019-02-27T14:25:33.181Z,10.43
2019-02-27T14:28:02.402Z,9.50
2019-02-27T14:30:40.416Z,7.33
2019-02-27T14:33:11.048Z,9.33
2019-02-27T14:35:39.750Z,8.37
2019-02-27T14:38:08.636Z,10.43
2019-02-27T14:40:40.936Z,8.33
2019-02-27T14:43:08.107Z,8.37
2019-02-27T14:45:39.572Z,7.17
2019-02-27T14:48:07.492Z,6.90
2019-02-27T14:50:36.363Z,7.80
2019-02-27T14:53:05.396Z,15.27
2019-02-27T14:55:36.130Z,8.70
2019-02-27T14:58:04.765Z,8.50
2019-02-27T15:00:39.579Z,10.83
2019-02-27T15:03:05.868Z,10.77
2019-02-27T15:05:36.639Z,10.37
2019-02-27T15:08:05.194Z,11.53
2019-02-27T15:10:34.056Z,9.33
2019-02-27T15:13:02.902Z,8.70
2019-02-27T15:15:32.910Z,10.57
2019-02-27T15:18:01.900Z,8.80
2019-02-27T15:20:31.334Z,9.80
2019-02-27T15:23:00.329Z,10.93
2019-02-27T15:25:29.249Z,8.53
2019-02-27T15:27:59.980Z,7.37
2019-02-27T15:30:30.653Z,7.13
2019-02-27T15:33:03.707Z,10.87
2019-02-27T15:35:30.156Z,8.53
2019-02-27T15:37:59.108Z,12.07
2019-02-27T15:40:29.999Z,8.53
2019-02-27T15:42:59.501Z,6.43
2019-02-27T15:45:31.124Z,7.70
2019-02-27T15:48:00.045Z,6.87
2019-02-27T15:50:33.503Z,7.33
2019-02-27T15:53:02.374Z,6.50
2019-02-27T15:55:34.314Z,6.80
2019-02-27T15:58:01.822Z,6.03
2019-02-27T16:00:30.956Z,4.70
2019-02-27T16:02:59.823Z,5.40
2019-02-27T16:05:31.403Z,7.77
2019-02-27T16:07:59.215Z,5.20
2019-02-27T16:10:28.900Z,4.73
2019-02-27T16:13:01.078Z,5.93
2019-02-27T16:15:28.320Z,7.90
2019-02-27T16:17:57.237Z,8.40
2019-02-27T16:20:27.983Z,5.10
2019-02-27T16:22:56.805Z,5.93
2019-02-27T16:25:26.936Z,6.13
2019-02-27T16:27:55.784Z,12.80
2019-02-27T16:30:32.543Z,9.03
2019-02-27T16:32:59.713Z,9.77
2019-02-27T16:35:28.592Z,7.23
2019-02-27T16:37:57.957Z,7.70
2019-02-27T16:40:28.154Z,6.27
2019-02-27T16:42:57.008Z,5.07
2019-02-27T16:45:37.339Z,7.03
2019-02-27T16:48:06.548Z,6.60
2019-02-27T16:50:35.419Z,10.00
2019-02-27T16:53:04.377Z,8.33
2019-02-27T16:55:36.119Z,4.80
2019-02-27T16:58:03.659Z,7.23
2019-02-27T17:00:34.774Z,4.17
2019-02-27T17:03:03.617Z,10.40
2019-02-27T17:05:32.444Z,4.47
2019-02-27T17:08:02.681Z,10.20
2019-02-27T17:10:36.742Z,7.40
2019-02-27T17:13:06.144Z,4.80
2019-02-27T17:15:36.294Z,4.27
2019-02-27T17:18:05.902Z,4.73
2019-02-27T17:20:34.866Z,4.03
2019-02-27T17:23:07.534Z,4.93
2019-02-27T17:25:34.172Z,4.43
2019-02-27T17:28:03.040Z,6.07
2019-02-27T17:30:37.913Z,5.13
2019-02-27T17:33:07.036Z,7.57
2019-02-27T17:35:35.846Z,3.77
2019-02-27T17:38:04.667Z,5.33
2019-02-27T17:40:36.479Z,4.90
2019-02-27T17:43:04.099Z,4.70
2019-02-27T17:45:34.699Z,6.90
2019-02-27T17:48:03.708Z,13.40
2019-02-27T17:50:32.585Z,5.83
2019-02-27T17:53:01.609Z,5.93
2019-02-27T17:55:30.574Z,6.83
2019-02-27T17:57:59.481Z,8.73
2019-02-27T18:00:33.517Z,7.00
2019-02-27T18:03:04.961Z,5.30
2019-02-27T18:05:32.965Z,5.00
2019-02-27T18:08:03.394Z,6.17
2019-02-27T18:10:37.130Z,6.23
2019-02-27T18:13:03.271Z,5.67
2019-02-27T18:15:32.083Z,5.83
2019-02-27T18:18:00.948Z,6.43
2019-02-27T18:20:31.885Z,6.77
2019-02-27T18:23:00.377Z,4.90
2019-02-27T18:25:29.186Z,7.67
2019-02-27T18:27:59.584Z,6.20
2019-02-27T18:30:28.935Z,8.63
2019-02-27T18:32:57.836Z,7.60
2019-02-27T18:35:29.663Z,5.70
2019-02-27T18:37:57.195Z,6.27
2019-02-27T18:40:26.252Z,6.77
2019-02-27T18:42:56.542Z,6.00
2019-02-27T18:45:29.412Z,9.20
2019-02-27T18:47:58.905Z,7.27
2019-02-27T18:50:28.035Z,4.40
2019-02-27T18:52:56.979Z,6.63
2019-02-27T18:55:29.388Z,6.43
2019-02-27T18:57:56.348Z,5.30
2019-02-27T19:00:27.565Z,7.43
2019-02-27T19:03:05.269Z,10.47
2019-02-27T19:05:34.236Z,6.23
2019-02-27T19:08:03.317Z,7.17
2019-02-27T19:10:32.278Z,5.70
2019-02-27T19:13:01.213Z,9.37
2019-02-27T19:15:30.159Z,7.70
2019-02-27T19:17:59.275Z,7.00
2019-02-27T19:20:44.886Z,11.30
2019-02-27T19:23:17.266Z,10.73
2019-02-27T19:25:44.498Z,8.90
2019-02-27T19:28:13.563Z,6.27
2019-02-27T19:30:42.709Z,9.33
2019-02-27T19:33:11.534Z,11.03
2019-02-27T19:35:40.469Z,6.50
2019-02-27T19:38:12.560Z,6.40
2019-02-27T19:40:40.233Z,7.30
2019-02-27T19:43:09.171Z,8.20
2019-02-27T19:45:38.235Z,8.83
2019-02-27T19:48:07.512Z,6.77
2019-02-27T19:50:36.427Z,9.23
2019-02-27T19:53:06.979Z,9.10
2019-02-27T19:55:36.282Z,8.47
2019-02-27T19:58:09.779Z,6.57
2019-02-27T20:00:47.665Z,7.30
2019-02-27T20:03:09.406Z,9.87
2019-02-27T20:05:38.332Z,9.57
2019-02-27T20:08:10.169Z,7.60
2019-02-27T20:10:38.049Z,4.93
2019-02-27T20:13:07.332Z,6.13
2019-02-27T20:15:36.451Z,5.30
2019-02-27T20:18:08.421Z,6.70
2019-02-27T20:20:40.065Z,7.50
2019-02-27T20:23:07.265Z,7.57
2019-02-27T20:25:36.599Z,4.53
2019-02-27T20:28:05.678Z,4.03
2019-02-27T20:30:34.753Z,6.00
2019-02-27T20:33:03.969Z,3.97
2019-02-27T20:35:32.845Z,4.00
2019-02-27T20:38:02.043Z,3.70
2019-02-27T20:40:34.229Z,4.40
2019-02-27T20:43:02.174Z,4.33
2019-02-27T20:45:31.030Z,7.10
2019-02-27T20:48:01.842Z,4.60
2019-02-27T20:50:48.707Z,5.10
2019-02-27T20:53:20.948Z,2.13
2019-02-27T20:55:48.273Z,2.53
2019-02-27T20:58:17.529Z,3.40
2019-02-27T21:00:46.688Z,2.43
2019-02-27T21:03:15.715Z,3.37
2019-02-27T21:05:46.140Z,2.30
2019-02-27T21:08:14.964Z,2.93
2019-02-27T21:10:43.777Z,5.90
2019-02-27T21:13:16.034Z,4.93
2019-02-27T21:15:43.265Z,3.07
2019-02-27T21:18:12.174Z,4.83
2019-02-27T21:20:42.158Z,5.17
2019-02-27T21:23:11.589Z,2.43
2019-02-27T21:25:40.492Z,3.47
2019-02-27T21:28:09.449Z,2.90
2019-02-27T21:30:38.275Z,3.13
2019-02-27T21:33:08.251Z,2.73
2019-02-27T21:35:37.607Z,2.60
2019-02-27T21:38:06.437Z,1.70
2019-02-27T21:40:36.234Z,2.63
2019-02-27T21:43:05.752Z,4.80
2019-02-27T21:45:37.265Z,3.30
2019-02-27T21:48:05.139Z,3.50
2019-02-27T21:50:34.002Z,2.70
2019-02-27T21:53:02.900Z,2.40
2019-02-27T21:55:31.740Z,5.43
2019-02-27T21:58:00.565Z,2.90
2019-02-27T22:00:30.620Z,4.37
2019-02-27T22:03:03.708Z,5.60
2019-02-27T22:05:30.523Z,4.10
2019-02-27T22:07:59.374Z,3.00
2019-02-27T22:10:28.262Z,3.17
2019-02-27T22:12:57.136Z,6.90
2019-02-27T22:15:30.329Z,5.67
2019-02-27T22:17:59.159Z,6.13
2019-02-27T22:20:28.180Z,6.47
2019-02-27T22:22:56.997Z,3.77
2019-02-27T22:25:30.218Z,8.17
2019-02-27T22:27:58.390Z,6.77
2019-02-27T22:30:26.837Z,4.10
2019-02-27T22:32:55.653Z,3.53
2019-02-27T22:35:24.508Z,5.40
2019-02-27T22:37:53.383Z,6.50
2019-02-27T22:40:23.078Z,6.37
2019-02-27T22:42:51.957Z,7.00
2019-02-27T22:45:21.286Z,3.97
2019-02-27T22:47:54.015Z,7.17
2019-02-27T22:50:21.790Z,3.70
2019-02-27T22:52:54.252Z,3.37
2019-02-27T22:55:21.067Z,2.43
2019-02-27T22:57:49.952Z,6.27
2019-02-27T23:00:31.907Z,5.67
2019-02-27T23:03:00.793Z,3.43
2019-02-27T23:05:29.601Z,4.43
2019-02-27T23:07:58.508Z,3.13
2019-02-27T23:10:28.134Z,2.93
2019-02-27T23:12:57.905Z,3.40
2019-02-27T23:15:26.708Z,3.27
2019-02-27T23:17:55.568Z,5.40
2019-02-27T23:20:24.418Z,4.10
2019-02-27T23:22:53.259Z,5.80
2019-02-27T23:25:22.139Z,4.27
2019-02-27T23:27:51.032Z,5.23
2019-02-27T23:30:19.804Z,3.03
2019-02-27T23:32:48.733Z,3.53
2019-02-27T23:35:17.608Z,5.10
2019-02-27T23:37:46.504Z,5.53
2019-02-27T23:40:17.587Z,3.53
2019-02-27T23:42:45.886Z,3.10
2019-02-27T23:45:14.949Z,2.33
2019-02-27T23:47:43.744Z,2.90
2019-02-27T23:50:13.871Z,2.87
2019-02-27T23:52:42.779Z,3.43
2019-02-27T23:55:11.783Z,4.30
2019-02-27T23:57:40.688Z,4.73
